createdAt,value
2022-12-27T00:00:34.659Z,100159.34
2022-12-27T00:03:17.706Z,100172.25
2022-12-27T00:06:01.277Z,100178.44
2022-12-27T00:08:43.866Z,100176.75
2022-12-27T00:11:29.953Z,100168.72
2022-12-27T00:14:18.084Z,100173.13
2022-12-27T00:17:07.589Z,100163.44
2022-12-27T00:20:00.547Z,100154.22
2022-12-27T00:22:46.736Z,100137.94
2022-12-27T00:25:34.921Z,100156.19
2022-12-27T00:28:16.255Z,100152.50
2022-12-27T00:31:03.041Z,100143.31
2022-12-27T00:33:44.056Z,100136.09
2022-12-27T00:36:27.089Z,100142.97
2022-12-27T00:39:16.959Z,100143.81
2022-12-27T00:42:07.575Z,100132.09
2022-12-27T00:44:54.079Z,100120.22
2022-12-27T00:47:41.634Z,100129.72
2022-12-27T00:50:24.749Z,100129.88
2022-12-27T00:53:15.285Z,100115.69
2022-12-27T00:55:59.394Z,100102.28
2022-12-27T00:58:41.953Z,100092.59
2022-12-27T01:01:29.611Z,100093.63
2022-12-27T01:04:11.227Z,100084.72
2022-12-27T01:06:53.948Z,100087.91
2022-12-27T01:09:37.793Z,100100.28
2022-12-27T01:12:21.998Z,100110.84
2022-12-27T01:15:24.886Z,100119.75
2022-12-27T01:18:03.142Z,100117.72
2022-12-27T01:20:40.756Z,100107.75
2022-12-27T01:23:30.373Z,100111.72
2022-12-27T01:26:20.128Z,100111.50
2022-12-27T01:28:58.458Z,100099.75
2022-12-27T01:31:31.573Z,100091.56
2022-12-27T01:34:12.772Z,100093.88
2022-12-27T01:36:58.464Z,100098.56
2022-12-27T01:39:40.829Z,100094.91
2022-12-27T01:42:41.577Z,100097.59
2022-12-27T01:45:33.202Z,100094.56
2022-12-27T01:48:18.003Z,100100.22
2022-12-27T01:51:02.258Z,100113.97
2022-12-27T01:53:43.119Z,100112.34
2022-12-27T01:56:24.463Z,100105.31
2022-12-27T01:59:10.619Z,100087.41
2022-12-27T02:02:01.799Z,100086.22
2022-12-27T02:04:42.329Z,100080.88
2022-12-27T02:07:24.234Z,100083.19
2022-12-27T02:10:07.843Z,100075.66
2022-12-27T02:12:41.093Z,100094.25
2022-12-27T02:15:28.432Z,100089.41
2022-12-27T02:18:09.079Z,100092.06
2022-12-27T02:21:12.329Z,100091.41
2022-12-27T02:24:13.619Z,100104.31
2022-12-27T02:27:09.790Z,100107.63
2022-12-27T02:29:54.111Z,100085.91
2022-12-27T02:32:39.924Z,100096.41
2022-12-27T02:35:29.069Z,100093.06
2022-12-27T02:38:18.335Z,100085.69
2022-12-27T02:41:09.198Z,100092.75
2022-12-27T02:44:03.515Z,100101.09
2022-12-27T02:46:59.929Z,100091.56
2022-12-27T02:50:00.606Z,100089.22
2022-12-27T02:53:09.557Z,100087.81
2022-12-27T02:56:43.255Z,100072.78
2022-12-27T03:00:05.999Z,100079.47
2022-12-27T03:03:26.745Z,100077.16
2022-12-27T03:06:58.534Z,100077.72
2022-12-27T03:10:22.119Z,100083.28
2022-12-27T03:13:38.665Z,100081.69
2022-12-27T03:16:45.888Z,100092.59
2022-12-27T03:20:00.345Z,100091.47
2022-12-27T03:22:58.446Z,100102.75
2022-12-27T03:25:42.505Z,100106.91
2022-12-27T03:28:45.560Z,100113.03
2022-12-27T03:31:47.839Z,100109.47
2022-12-27T03:34:32.291Z,100110.63
2022-12-27T03:37:34.789Z,100115.41
2022-12-27T03:40:33.894Z,100107.31
2022-12-27T03:43:19.436Z,100124.75
2022-12-27T03:46:34.173Z,100123.97
2022-12-27T03:49:31.810Z,100120.63
2022-12-27T03:52:34.065Z,100120.94
2022-12-27T03:55:18.483Z,100130.00
2022-12-27T03:57:48.807Z,100135.84
2022-12-27T04:00:27.562Z,100125.31
2022-12-27T04:03:08.632Z,100133.47
2022-12-27T04:05:52.287Z,100137.75
2022-12-27T04:08:50.513Z,100140.94
2022-12-27T04:11:41.284Z,100140.91
2022-12-27T04:14:42.252Z,100149.75
2022-12-27T04:17:36.333Z,100150.41
2022-12-27T04:20:41.656Z,100155.16
2022-12-27T04:23:38.383Z,100155.81
2022-12-27T04:26:32.718Z,100150.44
2022-12-27T04:29:23.550Z,100161.25
2022-12-27T04:32:28.654Z,100153.66
2022-12-27T04:35:09.660Z,100162.41
2022-12-27T04:37:52.694Z,100165.72
2022-12-27T04:40:49.258Z,100180.88
2022-12-27T04:43:56.597Z,100181.53
2022-12-27T04:46:51.146Z,100183.78
2022-12-27T04:49:45.121Z,100176.34
2022-12-27T04:52:47.013Z,100184.34
2022-12-27T04:55:26.926Z,100195.56
2022-12-27T04:58:13.235Z,100204.91
2022-12-27T05:01:14.148Z,100210.91
2022-12-27T05:04:02.471Z,100213.81
2022-12-27T05:06:46.290Z,100214.66
2022-12-27T05:09:39.375Z,100217.97
2022-12-27T05:12:39.674Z,100213.78
2022-12-27T05:15:32.305Z,100231.25
2022-12-27T05:18:18.861Z,100215.88
2022-12-27T05:21:07.075Z,100232.88
2022-12-27T05:24:06.019Z,100240.53
2022-12-27T05:26:44.955Z,100234.47
2022-12-27T05:29:30.913Z,100238.34
2022-12-27T05:32:24.223Z,100239.28
2022-12-27T05:35:01.961Z,100237.50
2022-12-27T05:37:54.738Z,100230.97
2022-12-27T05:40:31.007Z,100239.88
2022-12-27T05:43:15.925Z,100243.31
2022-12-27T05:46:01.553Z,100246.16
2022-12-27T05:48:41.398Z,100243.47
2022-12-27T05:51:24.860Z,100260.06
2022-12-27T05:54:05.485Z,100257.94
2022-12-27T05:56:41.345Z,100268.97
2022-12-27T05:59:19.017Z,100270.38
2022-12-27T06:01:54.486Z,100291.41
2022-12-27T06:04:44.390Z,100298.91
2022-12-27T06:07:22.622Z,100307.19
2022-12-27T06:10:07.538Z,100303.75
2022-12-27T06:12:48.897Z,100312.41
2022-12-27T06:15:26.187Z,100318.06
2022-12-27T06:18:17.908Z,100317.41
2022-12-27T06:21:04.953Z,100325.03
2022-12-27T06:23:49.368Z,100335.94
2022-12-27T06:26:29.587Z,100336.78
2022-12-27T06:29:11.714Z,100343.16
2022-12-27T06:31:51.027Z,100343.50
2022-12-27T06:34:29.813Z,100333.06
2022-12-27T06:37:14.031Z,100339.59
2022-12-27T06:39:54.130Z,100352.03
2022-12-27T06:42:32.006Z,100343.31
2022-12-27T06:45:12.900Z,100356.88
2022-12-27T06:47:49.477Z,100356.09
2022-12-27T06:50:36.663Z,100364.28
2022-12-27T06:53:31.606Z,100365.31
2022-12-27T06:56:18.463Z,100370.97
2022-12-27T06:58:57.311Z,100369.78
2022-12-27T07:01:43.980Z,100375.06
2022-12-27T07:04:24.958Z,100395.38
2022-12-27T07:07:15.879Z,100400.31
2022-12-27T07:09:59.531Z,100408.19
2022-12-27T07:12:39.487Z,100405.50
2022-12-27T07:15:19.798Z,100393.63
2022-12-27T07:18:00.451Z,100387.34
2022-12-27T07:20:54.970Z,100396.47
2022-12-27T07:23:58.210Z,100409.06
2022-12-27T07:26:49.488Z,100397.47
2022-12-27T07:29:33.395Z,100416.22
2022-12-27T07:32:11.999Z,100414.56
2022-12-27T07:34:52.414Z,100427.53
2022-12-27T07:37:27.774Z,100418.91
2022-12-27T07:40:08.376Z,100424.19
2022-12-27T07:42:46.944Z,100434.13
2022-12-27T07:45:22.234Z,100439.69
2022-12-27T07:48:12.769Z,100432.34
2022-12-27T07:51:01.903Z,100457.78
2022-12-27T07:53:42.592Z,100451.75
2022-12-27T07:56:26.649Z,100451.91
2022-12-27T07:59:17.591Z,100459.00
2022-12-27T08:02:08.013Z,100456.69
2022-12-27T08:04:46.901Z,100474.50
2022-12-27T08:07:28.894Z,100479.06
2022-12-27T08:10:09.636Z,100486.34
2022-12-27T08:12:47.951Z,100488.44
2022-12-27T08:15:34.035Z,100470.31
2022-12-27T08:18:12.168Z,100500.66
2022-12-27T08:20:56.733Z,100507.53
2022-12-27T08:23:46.573Z,100511.34
2022-12-27T08:26:33.447Z,100523.41
2022-12-27T08:29:11.311Z,100525.72
2022-12-27T08:32:02.177Z,100525.81
2022-12-27T08:34:40.147Z,100545.41
2022-12-27T08:37:38.717Z,100544.47
2022-12-27T08:40:18.202Z,100540.97
2022-12-27T08:42:59.117Z,100553.09
2022-12-27T08:45:43.498Z,100560.19
2022-12-27T08:48:40.729Z,100562.13
2022-12-27T08:51:34.392Z,100569.00
2022-12-27T08:54:21.223Z,100577.63
2022-12-27T08:56:59.926Z,100575.97
2022-12-27T08:59:40.750Z,100575.28
2022-12-27T09:02:29.018Z,100572.97
2022-12-27T09:05:18.650Z,100574.63
2022-12-27T09:07:58.747Z,100574.19
2022-12-27T09:10:40.921Z,100590.44
2022-12-27T09:13:16.135Z,100590.63
2022-12-27T09:16:01.904Z,100596.84
2022-12-27T09:18:48.435Z,100594.13
2022-12-27T09:21:28.076Z,100582.66
2022-12-27T09:24:08.396Z,100584.69
2022-12-27T09:26:52.259Z,100594.44
2022-12-27T09:29:32.903Z,100592.69
2022-12-27T09:32:29.906Z,100596.03
2022-12-27T09:35:16.198Z,100599.09
2022-12-27T09:37:55.935Z,100607.19
2022-12-27T09:40:37.479Z,100596.28
2022-12-27T09:43:27.322Z,100621.06
2022-12-27T09:46:09.118Z,100622.63
2022-12-27T09:48:52.122Z,100610.75
2022-12-27T09:51:57.600Z,100634.81
2022-12-27T09:54:50.878Z,100631.75
2022-12-27T09:57:34.206Z,100647.28
2022-12-27T10:00:12.259Z,100640.03
2022-12-27T10:02:58.940Z,100655.88
2022-12-27T10:05:56.644Z,100647.03
2022-12-27T10:08:56.554Z,100655.16
2022-12-27T10:12:07.817Z,100657.69
2022-12-27T10:15:08.588Z,100665.25
2022-12-27T10:18:16.097Z,100676.69
2022-12-27T10:21:29.249Z,100671.44
2022-12-27T10:24:08.436Z,100671.44
2022-12-27T10:26:50.597Z,100668.09
2022-12-27T10:29:34.048Z,100666.69
2022-12-27T10:32:16.943Z,100666.34
2022-12-27T10:35:00.255Z,100666.41
2022-12-27T10:37:43.884Z,100665.69
2022-12-27T10:40:34.351Z,100670.63
2022-12-27T10:43:22.319Z,100679.69
2022-12-27T10:46:28.936Z,100682.84
2022-12-27T10:49:31.329Z,100689.47
2022-12-27T10:52:20.836Z,100689.25
2022-12-27T10:55:05.317Z,100692.72
2022-12-27T10:57:51.834Z,100708.91
2022-12-27T11:00:37.083Z,100687.59
2022-12-27T11:03:26.331Z,100694.94
2022-12-27T11:06:17.999Z,100694.41
2022-12-27T11:09:03.314Z,100679.09
2022-12-27T11:11:43.862Z,100683.88
2022-12-27T11:14:29.906Z,100684.09
2022-12-27T11:17:26.844Z,100675.25
2022-12-27T11:20:32.881Z,100658.88
2022-12-27T11:23:25.064Z,100658.00
2022-12-27T11:26:20.066Z,100659.34
2022-12-27T11:29:05.021Z,100669.16
2022-12-27T11:31:48.632Z,100676.53
2022-12-27T11:34:25.910Z,100669.66
2022-12-27T11:37:23.920Z,100679.28
2022-12-27T11:40:30.783Z,100691.28
2022-12-27T11:43:24.927Z,100689.94
2022-12-27T11:46:03.899Z,100704.16
2022-12-27T11:48:49.424Z,100702.22
2022-12-27T11:52:02.176Z,100687.09
2022-12-27T11:55:30.825Z,100686.56
2022-12-27T11:58:28.418Z,100692.78
2022-12-27T12:01:46.902Z,100699.22
2022-12-27T12:04:59.599Z,100708.13
2022-12-27T12:07:40.776Z,100707.50
2022-12-27T12:10:46.331Z,100710.19
2022-12-27T12:13:42.745Z,100708.38
2022-12-27T12:16:52.009Z,100703.84
2022-12-27T12:19:41.706Z,100711.38
2022-12-27T12:23:08.760Z,100717.34
2022-12-27T12:26:09.811Z,100714.19
2022-12-27T12:32:53.509Z,100709.03
2022-12-27T12:35:50.941Z,100717.75
2022-12-27T12:38:40.888Z,100705.84
2022-12-27T12:41:43.205Z,100728.88
2022-12-27T12:44:47.014Z,100727.41
2022-12-27T12:47:47.712Z,100723.84
2022-12-27T12:50:33.213Z,100722.66
2022-12-27T12:53:36.834Z,100728.22
2022-12-27T12:56:28.174Z,100728.91
2022-12-27T12:59:50.808Z,100733.56
2022-12-27T13:02:46.728Z,100734.28
2022-12-27T13:05:58.231Z,100734.28
2022-12-27T13:08:59.748Z,100747.31
2022-12-27T13:11:57.105Z,100762.78
2022-12-27T13:14:55.287Z,100772.59
2022-12-27T13:17:52.882Z,100771.56
2022-12-27T13:20:53.854Z,100764.19
2022-12-27T13:24:13.413Z,100761.22
2022-12-27T13:27:18.450Z,100769.59
2022-12-27T13:30:20.361Z,100784.88
2022-12-27T13:33:25.227Z,100798.63
2022-12-27T13:36:20.856Z,100798.16
2022-12-27T13:39:15.492Z,100793.78
2022-12-27T13:42:23.065Z,100798.16
2022-12-27T13:45:36.637Z,100801.66
2022-12-27T13:49:01.541Z,100807.38
2022-12-27T13:52:02.394Z,100803.53
2022-12-27T13:55:04.517Z,100811.41
2022-12-27T13:58:12.453Z,100813.41
2022-12-27T14:01:09.848Z,100821.97
2022-12-27T14:04:05.639Z,100822.78
2022-12-27T14:07:04.688Z,100828.13
2022-12-27T14:10:16.394Z,100823.38
2022-12-27T14:13:12.029Z,100828.06
2022-12-27T14:16:30.536Z,100826.53
2022-12-27T14:19:46.602Z,100827.53
2022-12-27T14:23:18.179Z,100837.56
2022-12-27T14:26:37.668Z,100839.91
2022-12-27T14:29:37.137Z,100843.88
2022-12-27T14:32:36.992Z,100847.81
2022-12-27T14:35:42.210Z,100848.81
2022-12-27T14:38:24.143Z,100844.47
2022-12-27T14:41:42.922Z,100853.59
2022-12-27T14:44:54.224Z,100858.34
2022-12-27T14:47:42.753Z,100862.34
2022-12-27T14:50:15.438Z,100866.47
2022-12-27T14:53:21.858Z,100864.31
2022-12-27T14:56:34.632Z,100873.28
2022-12-27T14:59:52.857Z,100873.34
2022-12-27T15:03:05.323Z,100875.47
2022-12-27T15:06:20.525Z,100882.59
2022-12-27T15:09:16.274Z,100890.34
2022-12-27T15:12:24.578Z,100886.88
2022-12-27T15:15:22.755Z,100884.78
2022-12-27T15:18:23.143Z,100883.97
2022-12-27T15:21:25.744Z,100887.97
2022-12-27T15:24:02.683Z,100886.84
2022-12-27T15:26:49.302Z,100888.03
2022-12-27T15:29:42.347Z,100874.41
2022-12-27T15:33:11.864Z,100880.31
2022-12-27T15:35:55.231Z,100870.88
2022-12-27T15:38:54.014Z,100878.88
2022-12-27T15:41:51.655Z,100888.25
2022-12-27T15:44:42.893Z,100894.72
2022-12-27T15:47:43.581Z,100896.97
2022-12-27T15:50:30.416Z,100896.97
2022-12-27T15:53:29.741Z,100897.53
2022-12-27T15:56:30.218Z,100915.69
2022-12-27T15:59:51.903Z,100920.91
2022-12-27T16:02:53.686Z,100923.16
2022-12-27T16:05:52.445Z,100932.22
2022-12-27T16:08:37.883Z,100948.25
2022-12-27T16:11:20.131Z,100960.88
2022-12-27T16:14:38.661Z,100964.69
2022-12-27T16:17:36.153Z,100969.31
2022-12-27T16:20:28.093Z,100971.03
2022-12-27T16:23:08.223Z,100984.50
2022-12-27T16:25:49.633Z,100978.75
2022-12-27T16:28:39.486Z,100987.19
2022-12-27T16:31:20.155Z,100997.72
2022-12-27T16:33:55.093Z,101014.16
2022-12-27T16:36:32.212Z,101013.03
2022-12-27T16:39:35.993Z,101016.00
2022-12-27T16:42:14.968Z,101016.16
2022-12-27T16:45:29.944Z,101025.41
2022-12-27T16:48:33.880Z,101022.19
2022-12-27T16:51:16.915Z,101022.44
2022-12-27T16:54:24.734Z,101023.25
2022-12-27T16:57:33.136Z,101019.59
2022-12-27T17:00:43.385Z,101010.50
2022-12-27T17:03:28.530Z,101004.22
2022-12-27T17:06:33.075Z,101008.41
2022-12-27T17:09:21.539Z,101013.69
2022-12-27T17:12:15.018Z,101016.69
2022-12-27T17:15:07.726Z,101017.31
2022-12-27T17:17:57.075Z,101016.75
2022-12-27T17:20:35.633Z,101021.56
2022-12-27T17:23:08.895Z,101028.91
2022-12-27T17:26:00.793Z,101034.22
2022-12-27T17:28:42.376Z,101039.69
2022-12-27T17:32:11.061Z,101042.81
2022-12-27T17:35:24.445Z,101039.00
2022-12-27T17:38:25.559Z,101031.78
2022-12-27T17:41:50.350Z,101027.56
2022-12-27T17:44:59.196Z,101033.00
2022-12-27T17:47:43.187Z,101032.06
2022-12-27T17:50:24.230Z,101032.31
2022-12-27T17:53:45.128Z,101025.53
2022-12-27T17:56:41.571Z,101035.00
2022-12-27T17:59:18.662Z,101036.41
2022-12-27T18:02:33.483Z,101036.16
2022-12-27T18:05:17.657Z,101046.56
2022-12-27T18:08:08.611Z,101046.44
2022-12-27T18:10:49.654Z,101042.56
2022-12-27T18:13:33.950Z,101046.09
2022-12-27T18:16:27.681Z,101044.63
2022-12-27T18:19:06.658Z,101049.31
2022-12-27T18:21:46.090Z,101046.06
2022-12-27T18:24:44.761Z,101043.63
2022-12-27T18:27:31.966Z,101046.63
2022-12-27T18:30:10.504Z,101040.72
2022-12-27T18:32:47.878Z,101046.50
2022-12-27T18:35:29.773Z,101050.91
2022-12-27T18:38:02.300Z,101052.91
2022-12-27T18:40:38.944Z,101052.69
2022-12-27T18:43:19.271Z,101050.00
2022-12-27T18:46:09.557Z,101052.00
2022-12-27T18:48:49.158Z,101042.38
2022-12-27T18:51:39.868Z,101040.63
2022-12-27T18:54:38.625Z,101050.81
2022-12-27T18:57:35.290Z,101053.78
2022-12-27T19:00:30.684Z,101044.81
2022-12-27T19:03:21.830Z,101053.00
2022-12-27T19:06:15.522Z,101044.72
2022-12-27T19:09:01.982Z,101044.22
2022-12-27T19:11:47.262Z,101060.66
2022-12-27T19:14:25.935Z,101063.75
2022-12-27T19:17:11.091Z,101058.91
2022-12-27T19:19:54.278Z,101056.47
2022-12-27T19:22:55.337Z,101049.56
2022-12-27T19:25:37.520Z,101043.03
2022-12-27T19:28:42.316Z,101047.91
2022-12-27T19:31:32.208Z,101051.91
2022-12-27T19:34:14.566Z,101065.47
2022-12-27T19:36:54.350Z,101059.34
2022-12-27T19:39:33.451Z,101059.78
2022-12-27T19:42:16.107Z,101057.66
2022-12-27T19:44:58.707Z,101057.56
2022-12-27T19:47:41.340Z,101057.00
2022-12-27T19:50:20.667Z,101057.16
2022-12-27T19:53:03.494Z,101054.50
2022-12-27T19:55:41.714Z,101049.25
2022-12-27T19:58:27.410Z,101037.81
2022-12-27T20:01:08.883Z,101045.44
2022-12-27T20:03:46.747Z,101048.50
2022-12-27T20:06:28.481Z,101064.41
2022-12-27T20:09:06.246Z,101069.38
2022-12-27T20:11:49.686Z,101059.41
2022-12-27T20:14:41.139Z,101062.59
2022-12-27T20:17:24.560Z,101051.16
2022-12-27T20:20:05.330Z,101045.63
2022-12-27T20:23:04.156Z,101045.63
2022-12-27T20:25:50.882Z,101055.81
2022-12-27T20:28:31.524Z,101057.72
2022-12-27T20:31:22.937Z,101072.66
2022-12-27T20:34:06.767Z,101077.00
2022-12-27T20:36:44.818Z,101066.31
2022-12-27T20:39:25.219Z,101075.25
2022-12-27T20:42:03.601Z,101062.72
2022-12-27T20:44:42.262Z,101052.03
2022-12-27T20:47:31.635Z,101061.66
2022-12-27T20:50:04.518Z,101063.47
2022-12-27T20:52:50.917Z,101070.25
2022-12-27T20:55:27.107Z,101075.34
2022-12-27T20:58:09.091Z,101075.03
2022-12-27T21:00:56.810Z,101080.66
2022-12-27T21:03:40.328Z,101063.69
2022-12-27T21:06:28.544Z,101075.78
2022-12-27T21:09:09.950Z,101075.13
2022-12-27T21:11:50.815Z,101073.75
2022-12-27T21:14:41.854Z,101080.56
2022-12-27T21:17:19.359Z,101083.81
2022-12-27T21:20:11.217Z,101089.56
2022-12-27T21:22:53.371Z,101089.75
2022-12-27T21:25:34.611Z,101088.13
2022-12-27T21:28:15.100Z,101079.34
2022-12-27T21:31:03.640Z,101085.50
2022-12-27T21:33:40.850Z,101085.31
2022-12-27T21:36:24.622Z,101091.84
2022-12-27T21:39:05.236Z,101088.81
2022-12-27T21:41:56.601Z,101091.31
2022-12-27T21:44:39.022Z,101100.03
2022-12-27T21:47:22.705Z,101091.22
2022-12-27T21:49:57.765Z,101099.59
2022-12-27T21:52:38.343Z,101081.78
2022-12-27T21:55:13.901Z,101084.34
2022-12-27T21:57:57.201Z,101088.50
2022-12-27T22:00:35.306Z,101096.09
2022-12-27T22:03:10.871Z,101107.44
2022-12-27T22:05:46.873Z,101104.91
2022-12-27T22:08:23.416Z,101095.47
2022-12-27T22:11:04.049Z,101094.50
2022-12-27T22:13:44.367Z,101097.59
2022-12-27T22:16:29.027Z,101096.53
2022-12-27T22:19:04.396Z,101096.31
2022-12-27T22:21:50.028Z,101091.69
2022-12-27T22:24:30.404Z,101096.53
2022-12-27T22:27:18.541Z,101094.41
2022-12-27T22:29:53.792Z,101097.69
2022-12-27T22:32:40.313Z,101091.84
2022-12-27T22:35:18.736Z,101094.31
2022-12-27T22:37:54.322Z,101098.66
2022-12-27T22:40:45.793Z,101097.06
2022-12-27T22:43:33.800Z,101097.06
2022-12-27T22:46:27.353Z,101100.47
2022-12-27T22:49:11.741Z,101100.16
2022-12-27T22:51:53.617Z,101094.31
2022-12-27T22:55:05.515Z,101100.53
2022-12-27T22:57:32.568Z,101103.72
2022-12-27T23:00:16.741Z,101098.41
2022-12-27T23:02:55.485Z,101093.25
2022-12-27T23:05:33.071Z,101090.38
2022-12-27T23:08:11.092Z,101091.22
2022-12-27T23:10:53.250Z,101086.03
2022-12-27T23:13:37.362Z,101077.97
2022-12-27T23:16:28.213Z,101072.78
2022-12-27T23:19:05.575Z,101077.66
2022-12-27T23:22:01.597Z,101075.41
2022-12-27T23:24:47.086Z,101070.75
2022-12-27T23:27:36.513Z,101074.19
2022-12-27T23:30:17.222Z,101075.50
2022-12-27T23:32:54.750Z,101073.31
2022-12-27T23:35:35.163Z,101071.94
2022-12-27T23:38:21.838Z,101069.91
2022-12-27T23:41:04.675Z,101067.84
2022-12-27T23:43:53.927Z,101069.19
2022-12-27T23:46:39.850Z,101055.97
2022-12-27T23:49:17.663Z,101054.63
2022-12-27T23:51:55.362Z,101055.31
2022-12-27T23:54:35.330Z,101042.19
2022-12-27T23:57:22.388Z,101051.09
